createdAt,value
2018-01-22T00:00:22.636Z,95.22
2018-01-22T00:02:48.796Z,95.24
2018-01-22T00:05:14.970Z,95.23
2018-01-22T00:07:41.220Z,95.21
2018-01-22T00:10:07.384Z,95.27
2018-01-22T00:12:33.598Z,95.27
2018-01-22T00:14:59.881Z,95.31
2018-01-22T00:17:26.060Z,95.37
2018-01-22T00:19:52.243Z,95.39
2018-01-22T00:22:18.381Z,95.39
2018-01-22T00:24:44.557Z,95.36
2018-01-22T00:27:10.779Z,95.35
2018-01-22T00:29:36.999Z,95.38
2018-01-22T00:32:03.172Z,95.38
2018-01-22T00:34:29.325Z,95.37
2018-01-22T00:36:55.529Z,95.40
2018-01-22T00:39:21.910Z,95.42
2018-01-22T00:41:48.067Z,95.43
2018-01-22T00:44:14.302Z,95.45
2018-01-22T00:46:40.510Z,95.47
2018-01-22T00:49:06.800Z,95.47
2018-01-22T00:51:32.971Z,95.46
2018-01-22T00:53:59.222Z,95.44
2018-01-22T00:56:25.483Z,95.44
2018-01-22T00:58:51.692Z,95.43
2018-01-22T01:01:17.884Z,95.43
2018-01-22T01:03:44.017Z,95.39
2018-01-22T01:06:10.257Z,95.39
2018-01-22T01:08:36.499Z,95.37
2018-01-22T01:11:02.664Z,95.45
2018-01-22T01:13:28.878Z,95.46
2018-01-22T01:15:55.097Z,95.52
2018-01-22T01:18:21.324Z,95.56
2018-01-22T01:20:47.462Z,95.64
2018-01-22T01:23:13.660Z,95.66
2018-01-22T01:25:39.826Z,95.68
2018-01-22T01:28:05.998Z,95.74
2018-01-22T01:30:32.168Z,95.82
2018-01-22T01:32:58.346Z,95.87
2018-01-22T01:35:24.489Z,95.89
2018-01-22T01:37:50.629Z,95.95
2018-01-22T01:40:18.019Z,95.96
2018-01-22T01:42:44.218Z,95.96
2018-01-22T01:45:10.511Z,96.03
2018-01-22T01:47:36.690Z,96.13
2018-01-22T01:50:02.909Z,96.22
2018-01-22T01:52:29.134Z,96.27
2018-01-22T01:54:55.266Z,96.31
2018-01-22T01:57:21.502Z,96.35
2018-01-22T01:59:47.681Z,96.35
2018-01-22T02:02:13.821Z,96.38
2018-01-22T02:04:40.076Z,96.37
2018-01-22T02:07:06.209Z,96.35
2018-01-22T02:09:32.565Z,96.31
2018-01-22T02:11:58.703Z,96.27
2018-01-22T02:14:24.937Z,96.23
2018-01-22T02:16:51.096Z,96.21
2018-01-22T02:19:17.317Z,96.17
2018-01-22T02:21:43.618Z,96.14
2018-01-22T02:24:09.759Z,96.06
2018-01-22T02:26:35.907Z,95.97
2018-01-22T02:29:02.161Z,95.91
2018-01-22T02:31:28.317Z,95.86
2018-01-22T02:33:54.478Z,95.87
2018-01-22T02:36:20.620Z,95.83
2018-01-22T02:38:46.824Z,95.78
2018-01-22T02:41:13.008Z,95.66
2018-01-22T02:43:39.318Z,95.63
2018-01-22T02:46:05.549Z,95.70
2018-01-22T02:48:31.723Z,95.73
2018-01-22T02:50:57.947Z,95.67
2018-01-22T02:53:25.043Z,95.68
2018-01-22T02:55:51.163Z,95.61
2018-01-22T02:58:17.330Z,95.65
2018-01-22T03:00:43.555Z,95.69
2018-01-22T03:03:09.681Z,95.74
2018-01-22T03:05:35.810Z,95.73
2018-01-22T03:08:02.036Z,95.69
2018-01-22T03:10:28.206Z,95.65
2018-01-22T03:12:54.342Z,95.58
2018-01-22T03:15:20.533Z,95.59
2018-01-22T03:17:46.652Z,95.55
2018-01-22T03:20:12.877Z,95.62
2018-01-22T03:22:39.009Z,95.65
2018-01-22T03:25:05.161Z,95.65
2018-01-22T03:27:31.326Z,95.62
2018-01-22T03:29:57.528Z,95.57
2018-01-22T03:32:23.687Z,95.54
2018-01-22T03:34:49.910Z,95.53
2018-01-22T03:37:16.055Z,95.51
2018-01-22T03:39:42.260Z,95.44
2018-01-22T03:42:08.461Z,95.45
2018-01-22T03:44:34.580Z,95.45
2018-01-22T03:47:00.782Z,95.41
2018-01-22T03:49:26.986Z,95.40
2018-01-22T03:51:53.126Z,95.38
2018-01-22T03:54:19.333Z,95.37
2018-01-22T03:56:45.501Z,95.30
2018-01-22T03:59:11.701Z,95.28
2018-01-22T04:01:37.979Z,95.25
2018-01-22T04:04:04.103Z,95.26
2018-01-22T04:06:30.249Z,95.27
2018-01-22T04:08:56.458Z,95.26
2018-01-22T04:11:22.581Z,95.25
2018-01-22T04:13:48.720Z,95.26
2018-01-22T04:16:14.906Z,95.26
2018-01-22T04:18:41.072Z,95.25
2018-01-22T04:21:07.237Z,95.31
2018-01-22T04:23:33.500Z,95.38
2018-01-22T04:25:59.626Z,95.40
2018-01-22T04:28:25.784Z,95.41
2018-01-22T04:30:51.985Z,95.41
2018-01-22T04:33:18.128Z,95.35
2018-01-22T04:35:44.315Z,95.32
2018-01-22T04:38:10.505Z,95.29
2018-01-22T04:40:36.725Z,95.25
2018-01-22T04:43:02.909Z,95.17
2018-01-22T04:45:29.096Z,95.05
2018-01-22T04:47:55.248Z,95.04
2018-01-22T04:50:21.459Z,94.97
2018-01-22T04:52:47.617Z,94.92
2018-01-22T04:55:13.781Z,94.92
2018-01-22T04:57:39.936Z,95.03
2018-01-22T05:00:06.264Z,95.00
2018-01-22T05:02:32.384Z,95.06
2018-01-22T05:04:58.552Z,95.06
2018-01-22T05:07:25.558Z,95.02
2018-01-22T05:09:51.762Z,94.95
2018-01-22T05:12:17.915Z,95.09
2018-01-22T05:14:44.114Z,95.06
2018-01-22T05:17:10.313Z,95.01
2018-01-22T05:19:36.507Z,95.03
2018-01-22T05:22:02.653Z,95.14
2018-01-22T05:24:28.841Z,95.19
2018-01-22T05:26:55.006Z,95.21
2018-01-22T05:29:21.214Z,95.17
2018-01-22T05:31:47.454Z,95.24
2018-01-22T05:34:13.598Z,95.26
2018-01-22T05:36:39.756Z,95.22
2018-01-22T05:39:06.500Z,95.27
2018-01-22T05:41:32.726Z,95.20
2018-01-22T05:43:58.884Z,95.21
2018-01-22T05:46:25.209Z,95.15
2018-01-22T05:48:51.366Z,95.25
2018-01-22T05:51:17.578Z,95.27
2018-01-22T05:53:43.790Z,95.21
2018-01-22T05:56:09.968Z,95.23
2018-01-22T05:58:36.234Z,95.24
2018-01-22T06:01:02.424Z,95.22
2018-01-22T06:03:28.620Z,95.19
2018-01-22T06:05:54.809Z,95.11
2018-01-22T06:08:20.962Z,95.21
2018-01-22T06:10:47.210Z,95.26
2018-01-22T06:13:13.362Z,95.20
2018-01-22T06:15:39.583Z,95.24
2018-01-22T06:18:05.783Z,95.19
2018-01-22T06:20:32.991Z,95.20
2018-01-22T06:22:59.145Z,95.21
2018-01-22T06:25:25.387Z,95.14
2018-01-22T06:27:51.695Z,95.02
2018-01-22T06:30:17.927Z,95.00
2018-01-22T06:32:44.107Z,95.09
2018-01-22T06:35:10.273Z,95.16
2018-01-22T06:37:36.454Z,95.18
2018-01-22T06:40:02.652Z,95.20
2018-01-22T06:42:28.800Z,95.25
2018-01-22T06:44:54.988Z,95.32
2018-01-22T06:47:21.225Z,95.33
2018-01-22T06:49:47.532Z,95.32
2018-01-22T06:52:13.725Z,95.35
2018-01-22T06:54:39.880Z,95.35
2018-01-22T06:57:06.098Z,95.30
2018-01-22T06:59:32.399Z,95.22
2018-01-22T07:01:58.567Z,95.20
2018-01-22T07:04:24.736Z,95.18
2018-01-22T07:06:50.906Z,95.21
2018-01-22T07:09:17.061Z,95.19
2018-01-22T07:11:43.337Z,95.18
2018-01-22T07:14:09.524Z,95.08
2018-01-22T07:16:36.352Z,95.02
2018-01-22T07:19:02.610Z,95.00
2018-01-22T07:21:28.792Z,94.97
2018-01-22T07:23:54.954Z,95.02
2018-01-22T07:26:21.129Z,95.07
2018-01-22T07:28:47.345Z,95.13
2018-01-22T07:31:13.563Z,95.17
2018-01-22T07:33:39.729Z,95.21
2018-01-22T07:36:05.953Z,95.14
2018-01-22T07:38:32.853Z,95.15
2018-01-22T07:40:59.103Z,95.13
2018-01-22T07:43:25.260Z,95.07
2018-01-22T07:45:51.499Z,95.04
2018-01-22T07:48:17.684Z,95.03
2018-01-22T07:50:43.886Z,94.96
2018-01-22T07:53:10.040Z,94.83
2018-01-22T07:55:36.204Z,94.83
2018-01-22T07:58:02.400Z,94.85
2018-01-22T08:00:28.596Z,94.83
2018-01-22T08:02:54.743Z,94.81
2018-01-22T08:05:20.877Z,94.78
2018-01-22T08:07:47.048Z,94.73
2018-01-22T08:10:13.268Z,94.74
2018-01-22T08:12:39.449Z,94.68
2018-01-22T08:15:05.671Z,94.63
2018-01-22T08:17:31.913Z,94.63
2018-01-22T08:19:58.157Z,94.64
2018-01-22T08:22:24.336Z,94.64
2018-01-22T08:24:50.482Z,94.64
2018-01-22T08:27:16.646Z,94.58
2018-01-22T08:29:42.832Z,94.60
2018-01-22T08:32:09.063Z,94.63
2018-01-22T08:34:35.356Z,94.60
2018-01-22T08:37:01.608Z,94.66
2018-01-22T08:39:27.720Z,94.69
2018-01-22T08:41:53.942Z,94.67
2018-01-22T08:44:20.191Z,94.70
2018-01-22T08:46:46.425Z,94.68
2018-01-22T08:49:12.600Z,94.57
2018-01-22T08:51:38.930Z,94.60
2018-01-22T08:54:05.077Z,94.60
2018-01-22T08:56:31.227Z,94.57
2018-01-22T08:58:57.468Z,94.57
2018-01-22T09:01:24.238Z,94.57
2018-01-22T09:03:50.402Z,94.55
2018-01-22T09:06:16.570Z,94.49
2018-01-22T09:08:42.724Z,94.43
2018-01-22T09:11:08.925Z,94.42
2018-01-22T09:13:35.096Z,94.40
2018-01-22T09:16:01.354Z,94.39
2018-01-22T09:18:27.510Z,94.36
2018-01-22T09:20:53.823Z,94.29
2018-01-22T09:23:20.868Z,94.27
2018-01-22T09:25:47.032Z,94.20
2018-01-22T09:28:13.291Z,94.26
2018-01-22T09:30:39.486Z,94.07
2018-01-22T09:33:05.637Z,94.09
2018-01-22T09:35:31.923Z,94.02
2018-01-22T09:37:58.102Z,93.92
2018-01-22T09:40:24.347Z,93.79
2018-01-22T09:42:50.490Z,93.86
2018-01-22T09:45:16.784Z,93.78
2018-01-22T09:47:42.946Z,93.58
2018-01-22T09:50:09.192Z,93.35
2018-01-22T09:52:35.435Z,93.15
2018-01-22T09:55:01.696Z,92.52
2018-01-22T09:57:27.796Z,92.79
2018-01-22T09:59:53.923Z,92.63
2018-01-22T10:02:20.035Z,92.88
2018-01-22T10:04:46.131Z,92.94
2018-01-22T10:07:12.287Z,92.46
2018-01-22T10:09:41.625Z,92.57
2018-01-22T10:12:08.335Z,92.85
2018-01-22T10:14:34.637Z,92.74
2018-01-22T10:17:00.826Z,92.78
2018-01-22T10:19:26.988Z,92.21
2018-01-22T10:21:53.187Z,92.15
2018-01-22T10:24:19.421Z,91.99
2018-01-22T10:26:45.762Z,91.56
2018-01-22T10:29:12.048Z,91.88
2018-01-22T10:31:38.324Z,91.74
2018-01-22T10:34:04.773Z,91.70
2018-01-22T10:36:30.914Z,91.90
2018-01-22T10:38:57.106Z,92.12
2018-01-22T10:41:23.309Z,91.95
2018-01-22T10:43:49.439Z,91.08
2018-01-22T10:46:15.732Z,91.40
2018-01-22T10:48:41.895Z,90.65
2018-01-22T10:51:08.102Z,90.38
2018-01-22T10:53:34.232Z,90.90
2018-01-22T10:56:00.382Z,90.90
2018-01-22T10:58:26.588Z,90.69
2018-01-22T11:00:52.824Z,89.96
2018-01-22T11:03:18.991Z,90.19
2018-01-22T11:05:45.240Z,90.71
2018-01-22T11:08:11.400Z,89.66
2018-01-22T11:10:37.575Z,89.54
2018-01-22T11:13:03.812Z,89.11
2018-01-22T11:15:36.003Z,88.20
2018-01-22T11:18:02.152Z,88.83
2018-01-22T11:20:28.331Z,89.43
2018-01-22T11:22:54.529Z,86.90
2018-01-22T11:25:20.683Z,87.54
2018-01-22T11:27:46.872Z,88.35
2018-01-22T11:30:13.033Z,88.61
2018-01-22T11:32:39.502Z,85.65
2018-01-22T11:35:05.687Z,87.50
2018-01-22T11:37:31.818Z,87.00
2018-01-22T11:39:59.032Z,87.02
2018-01-22T11:42:25.289Z,88.21
2018-01-22T11:44:53.298Z,87.22
2018-01-22T11:47:19.544Z,86.81
2018-01-22T11:49:45.740Z,87.32
2018-01-22T11:52:11.977Z,86.23
2018-01-22T11:54:38.201Z,86.11
2018-01-22T11:57:04.424Z,86.07
2018-01-22T11:59:30.744Z,86.85
2018-01-22T12:01:56.928Z,85.62
2018-01-22T12:04:23.182Z,85.40
2018-01-22T12:06:49.395Z,86.10
2018-01-22T12:09:15.598Z,87.80
2018-01-22T12:11:41.764Z,88.51
2018-01-22T12:14:07.944Z,86.87
2018-01-22T12:16:34.181Z,87.47
2018-01-22T12:19:00.383Z,86.80
2018-01-22T12:21:26.579Z,87.49
2018-01-22T12:23:52.761Z,87.98
2018-01-22T12:26:18.937Z,87.59
2018-01-22T12:28:45.113Z,87.26
2018-01-22T12:31:11.307Z,87.66
2018-01-22T12:33:37.519Z,87.07
2018-01-22T12:36:03.786Z,84.67
2018-01-22T12:38:29.968Z,85.22
2018-01-22T12:40:56.279Z,85.02
2018-01-22T12:43:22.477Z,85.18
2018-01-22T12:45:48.712Z,84.31
2018-01-22T12:48:14.982Z,85.59
2018-01-22T12:50:41.258Z,83.81
2018-01-22T12:53:07.563Z,83.68
2018-01-22T12:55:34.089Z,85.26
2018-01-22T12:58:01.453Z,85.56
2018-01-22T13:00:27.767Z,83.59
2018-01-22T13:02:53.994Z,85.20
2018-01-22T13:05:20.233Z,84.37
2018-01-22T13:07:46.476Z,83.76
2018-01-22T13:10:12.786Z,84.87
2018-01-22T13:12:38.961Z,83.64
2018-01-22T13:15:05.190Z,82.15
2018-01-22T13:17:31.438Z,84.50
2018-01-22T13:19:58.932Z,84.60
2018-01-22T13:22:25.088Z,84.34
2018-01-22T13:24:51.380Z,85.11
2018-01-22T13:27:17.569Z,82.94
2018-01-22T13:29:43.823Z,83.60
2018-01-22T13:32:10.021Z,85.29
2018-01-22T13:34:36.233Z,83.60
2018-01-22T13:37:02.552Z,82.19
2018-01-22T13:39:28.819Z,82.74
2018-01-22T13:41:56.177Z,83.49
2018-01-22T13:44:22.452Z,83.80
2018-01-22T13:46:48.838Z,83.23
2018-01-22T13:49:15.224Z,83.11
2018-01-22T13:51:41.413Z,83.60
2018-01-22T13:54:07.609Z,83.01
2018-01-22T13:56:33.836Z,84.21
2018-01-22T13:59:00.010Z,82.34
2018-01-22T14:01:26.304Z,82.15
2018-01-22T14:03:52.649Z,83.09
2018-01-22T14:06:18.845Z,82.35
2018-01-22T14:08:45.019Z,81.93
2018-01-22T14:11:11.285Z,83.62
2018-01-22T14:13:37.485Z,83.02
2018-01-22T14:16:03.729Z,81.56
2018-01-22T14:18:29.956Z,81.29
2018-01-22T14:20:56.235Z,81.22
2018-01-22T14:23:22.431Z,80.30
2018-01-22T14:25:48.645Z,81.25
2018-01-22T14:28:14.878Z,80.65
2018-01-22T14:30:41.094Z,80.01
2018-01-22T14:33:07.286Z,81.11
2018-01-22T14:35:33.476Z,82.10
2018-01-22T14:37:59.670Z,80.69
2018-01-22T14:40:25.842Z,80.56
2018-01-22T14:42:52.062Z,80.67
2018-01-22T14:45:18.347Z,80.50
2018-01-22T14:47:44.559Z,82.44
2018-01-22T14:50:10.768Z,81.12
2018-01-22T14:52:37.031Z,81.05
2018-01-22T14:55:03.281Z,81.97
2018-01-22T14:57:29.451Z,82.00
2018-01-22T14:59:55.681Z,80.78
2018-01-22T15:02:21.906Z,81.58
2018-01-22T15:04:53.385Z,82.04
2018-01-22T15:07:19.679Z,81.63
2018-01-22T15:09:45.920Z,80.96
2018-01-22T15:12:12.072Z,81.91
2018-01-22T15:14:38.296Z,82.00
2018-01-22T15:17:04.472Z,81.99
2018-01-22T15:19:30.886Z,82.24
2018-01-22T15:21:57.165Z,81.40
2018-01-22T15:24:23.376Z,81.18
2018-01-22T15:26:49.612Z,82.92
2018-01-22T15:29:15.834Z,81.22
2018-01-22T15:31:42.068Z,81.50
2018-01-22T15:34:08.354Z,82.48
2018-01-22T15:36:34.669Z,81.80
2018-01-22T15:39:00.996Z,81.50
2018-01-22T15:41:27.406Z,82.03
2018-01-22T15:43:53.671Z,82.77
2018-01-22T15:46:20.118Z,81.89
2018-01-22T15:48:46.370Z,82.71
2018-01-22T15:51:12.609Z,82.64
2018-01-22T15:53:38.880Z,83.34
2018-01-22T15:56:05.216Z,82.78
2018-01-22T15:58:31.458Z,83.00
2018-01-22T16:00:57.752Z,83.16
2018-01-22T16:03:24.075Z,83.06
2018-01-22T16:05:50.305Z,83.09
2018-01-22T16:08:16.578Z,83.38
2018-01-22T16:10:43.065Z,83.76
2018-01-22T16:13:09.847Z,82.97
2018-01-22T16:15:36.095Z,83.26
2018-01-22T16:18:02.308Z,83.24
2018-01-22T16:20:28.584Z,84.00
2018-01-22T16:22:54.788Z,83.52
2018-01-22T16:25:20.986Z,83.21
2018-01-22T16:27:47.243Z,83.67
2018-01-22T16:30:13.479Z,83.87
2018-01-22T16:32:39.657Z,84.36
2018-01-22T16:35:05.889Z,84.74
2018-01-22T16:37:32.063Z,85.06
2018-01-22T16:39:58.266Z,85.47
2018-01-22T16:42:25.468Z,85.35
2018-01-22T16:44:51.689Z,85.32
2018-01-22T16:47:24.757Z,85.51
2018-01-22T16:49:51.003Z,85.79
2018-01-22T16:52:17.252Z,85.60
2018-01-22T16:54:43.471Z,85.83
2018-01-22T16:57:09.692Z,85.95
2018-01-22T16:59:35.991Z,85.73
2018-01-22T17:02:02.232Z,86.31
2018-01-22T17:04:28.432Z,86.05
2018-01-22T17:06:54.621Z,86.10
2018-01-22T17:09:20.852Z,86.16
2018-01-22T17:11:47.116Z,86.39
2018-01-22T17:14:13.309Z,86.05
2018-01-22T17:16:39.551Z,86.25
2018-01-22T17:19:05.781Z,86.53
2018-01-22T17:21:32.001Z,86.32
2018-01-22T17:23:58.180Z,86.62
2018-01-22T17:26:24.377Z,86.54
2018-01-22T17:28:50.668Z,86.58
2018-01-22T17:31:17.027Z,86.65
2018-01-22T17:33:43.269Z,86.98
2018-01-22T17:36:09.432Z,87.37
2018-01-22T17:38:35.625Z,87.34
2018-01-22T17:41:01.816Z,87.65
2018-01-22T17:43:28.005Z,87.60
2018-01-22T17:45:54.264Z,87.77
2018-01-22T17:48:20.417Z,87.44
2018-01-22T17:50:46.869Z,87.07
2018-01-22T17:53:13.051Z,86.93
2018-01-22T17:55:39.190Z,86.59
2018-01-22T17:58:05.494Z,87.27
2018-01-22T18:00:31.687Z,86.49
2018-01-22T18:02:57.958Z,86.73
2018-01-22T18:05:24.179Z,86.34
2018-01-22T18:07:50.365Z,86.61
2018-01-22T18:10:16.596Z,86.72
2018-01-22T18:12:42.834Z,86.82
2018-01-22T18:15:09.135Z,87.04
2018-01-22T18:17:35.437Z,87.01
2018-01-22T18:20:01.717Z,86.61
2018-01-22T18:22:27.999Z,86.28
2018-01-22T18:24:54.477Z,86.65
2018-01-22T18:27:20.807Z,86.23
2018-01-22T18:29:47.030Z,85.79
2018-01-22T18:32:13.291Z,85.75
2018-01-22T18:34:39.571Z,86.15
2018-01-22T18:37:05.752Z,86.09
2018-01-22T18:39:31.986Z,86.01
2018-01-22T18:41:58.439Z,86.20
2018-01-22T18:44:24.748Z,85.50
2018-01-22T18:46:52.732Z,85.38
2018-01-22T18:49:18.976Z,85.66
2018-01-22T18:51:45.380Z,85.49
2018-01-22T18:54:11.719Z,85.51
2018-01-22T18:56:37.858Z,85.19
2018-01-22T18:59:04.091Z,85.28
2018-01-22T19:01:30.436Z,84.41
2018-01-22T19:03:56.671Z,84.00
2018-01-22T19:06:22.831Z,84.72
2018-01-22T19:08:49.033Z,84.55
2018-01-22T19:11:15.337Z,83.52
2018-01-22T19:13:41.552Z,83.34
2018-01-22T19:16:07.828Z,84.07
2018-01-22T19:18:34.010Z,83.80
2018-01-22T19:21:00.308Z,83.46
2018-01-22T19:23:26.463Z,83.91
2018-01-22T19:25:52.631Z,83.76
2018-01-22T19:28:18.780Z,83.55
2018-01-22T19:30:45.018Z,83.80
2018-01-22T19:33:11.271Z,83.68
2018-01-22T19:35:37.452Z,83.19
2018-01-22T19:38:03.651Z,83.53
2018-01-22T19:40:29.904Z,83.51
2018-01-22T19:42:56.168Z,83.55
2018-01-22T19:45:22.377Z,83.31
2018-01-22T19:47:48.570Z,82.91
2018-01-22T19:50:14.722Z,83.01
2018-01-22T19:52:41.662Z,82.87
2018-01-22T19:55:08.003Z,82.93
2018-01-22T19:57:34.169Z,82.86
2018-01-22T20:00:00.336Z,83.33
2018-01-22T20:02:26.580Z,82.97
2018-01-22T20:04:52.768Z,83.07
2018-01-22T20:07:18.959Z,82.20
2018-01-22T20:09:45.225Z,82.92
2018-01-22T20:12:11.454Z,83.43
2018-01-22T20:14:37.616Z,82.79
2018-01-22T20:17:03.815Z,82.74
2018-01-22T20:19:30.008Z,82.95
2018-01-22T20:21:57.002Z,83.07
2018-01-22T20:24:23.212Z,83.19
2018-01-22T20:26:49.377Z,82.92
2018-01-22T20:29:15.520Z,82.79
2018-01-22T20:31:41.707Z,83.39
2018-01-22T20:34:07.947Z,83.26
2018-01-22T20:36:35.290Z,83.67
2018-01-22T20:39:01.592Z,83.99
2018-01-22T20:41:27.913Z,83.26
2018-01-22T20:43:54.054Z,83.68
2018-01-22T20:46:20.288Z,83.38
2018-01-22T20:48:46.520Z,82.60
2018-01-22T20:51:12.727Z,83.27
2018-01-22T20:53:39.041Z,83.34
2018-01-22T20:56:05.200Z,82.95
2018-01-22T20:58:32.773Z,82.77
2018-01-22T21:00:58.933Z,82.96
2018-01-22T21:03:25.172Z,83.50
2018-01-22T21:05:51.405Z,83.49
2018-01-22T21:08:17.562Z,83.22
2018-01-22T21:10:43.765Z,83.10
2018-01-22T21:13:09.960Z,82.43
2018-01-22T21:15:36.171Z,83.06
2018-01-22T21:18:02.419Z,82.99
2018-01-22T21:20:28.977Z,82.13
2018-01-22T21:22:55.217Z,82.72
2018-01-22T21:25:21.417Z,82.66
2018-01-22T21:27:47.570Z,82.76
2018-01-22T21:30:13.725Z,82.53
2018-01-22T21:32:39.971Z,82.80
2018-01-22T21:35:06.180Z,81.95
2018-01-22T21:37:32.386Z,81.89
2018-01-22T21:39:58.607Z,82.89
2018-01-22T21:42:24.824Z,83.14
2018-01-22T21:44:50.988Z,82.69
2018-01-22T21:47:17.256Z,82.12
2018-01-22T21:49:43.421Z,81.98
2018-01-22T21:52:09.597Z,82.41
2018-01-22T21:54:35.790Z,81.93
2018-01-22T21:57:02.029Z,81.70
2018-01-22T21:59:28.175Z,82.81
2018-01-22T22:01:54.425Z,83.14
2018-01-22T22:04:20.570Z,82.71
2018-01-22T22:06:46.739Z,83.10
2018-01-22T22:09:12.933Z,83.31
2018-01-22T22:11:39.099Z,83.33
2018-01-22T22:14:05.435Z,82.77
2018-01-22T22:16:33.194Z,83.28
2018-01-22T22:18:59.356Z,82.54
2018-01-22T22:21:25.588Z,82.84
2018-01-22T22:23:51.790Z,83.00
2018-01-22T22:26:17.952Z,83.01
2018-01-22T22:28:44.209Z,83.21
2018-01-22T22:31:10.377Z,83.27
2018-01-22T22:33:36.612Z,83.91
2018-01-22T22:36:02.797Z,83.53
2018-01-22T22:38:28.998Z,83.63
2018-01-22T22:40:55.184Z,83.92
2018-01-22T22:43:21.449Z,84.41
2018-01-22T22:45:47.652Z,84.23
2018-01-22T22:48:13.798Z,84.29
2018-01-22T22:50:39.989Z,84.03
2018-01-22T22:53:06.205Z,83.80
2018-01-22T22:55:32.410Z,83.81
2018-01-22T22:57:58.589Z,83.30
2018-01-22T23:00:24.785Z,83.49
2018-01-22T23:02:50.970Z,83.02
2018-01-22T23:05:18.197Z,83.22
2018-01-22T23:07:44.451Z,83.23
2018-01-22T23:10:10.613Z,83.06
2018-01-22T23:12:36.842Z,83.68
2018-01-22T23:15:03.082Z,83.38
2018-01-22T23:17:29.291Z,83.37
2018-01-22T23:19:55.494Z,83.52
2018-01-22T23:22:21.692Z,83.39
2018-01-22T23:24:48.081Z,83.30
2018-01-22T23:27:14.414Z,83.54
2018-01-22T23:29:40.573Z,83.86
2018-01-22T23:32:06.749Z,84.30
2018-01-22T23:34:32.909Z,83.78
2018-01-22T23:36:59.066Z,84.14
2018-01-22T23:39:25.255Z,84.22
2018-01-22T23:41:51.426Z,84.54
2018-01-22T23:44:17.623Z,84.07
2018-01-22T23:46:43.812Z,83.99
2018-01-22T23:49:10.005Z,83.92
2018-01-22T23:51:36.177Z,84.23
2018-01-22T23:54:02.382Z,84.19
2018-01-22T23:56:28.512Z,84.15
2018-01-22T23:58:54.660Z,84.02
